Time;durP1;ratioP1;P1;durP2;ratioP2;P2;SDS_P1;SDS_P2;PMS_P1;PMS_P2;Temp;Humidity;BMP_temperature;BMP_pressure;BME280_temperature;BME280_humidity;BME280_pressure;Samples;Min_cycle;Max_cycle;Signal;HPM_P1;HPM_P2
2022/08/29 00:01:06;;;;;;;;;;;;;;;;;;6269675;22;19926;-88
2022/08/29 00:03:32;;;;;;;;;;;;;;;;;;6267708;22;19918;-88
2022/08/29 00:05:58;;;;;;;;;;;;;;;;;;6270933;22;19926;-88
2022/08/29 00:08:24;;;;;;;;;;;;;;;;;;6268381;22;19926;-88
2022/08/29 00:10:50;;;;;;;;;;;;;;;;;;6245276;22;19930;-88
2022/08/29 00:13:16;;;;;;;;;;;;;;;;;;6245564;22;19919;-88
2022/08/29 00:15:42;;;;;;;;;;;;;;;;;;6267876;22;19919;-88
2022/08/29 00:18:08;;;;;;;;;;;;;;;;;;6271316;22;19915;-88
2022/08/29 00:20:34;;;;;;;;;;;;;;;;;;6241357;22;19919;-88
2022/08/29 00:23:00;;;;;;;;;;;;;;;;;;6270458;22;19954;-88
2022/08/29 00:25:26;;;;;;;;;;;;;;;;;;6266120;22;19919;-88
2022/08/29 00:27:52;;;;;;;;;;;;;;;;;;6272122;22;19925;-88
2022/08/29 00:30:18;;;;;;;;;;;;;;;;;;6244499;22;19993;-88
2022/08/29 00:32:44;;;;;;;;;;;;;;;;;;6270302;22;19919;-88
2022/08/29 00:35:10;;;;;;;;;;;;;;;;;;6270299;22;20419;-88
2022/08/29 00:37:36;;;;;;;;;;;;;;;;;;6266619;22;19989;-88
2022/08/29 00:40:02;;;;;;;;;;;;;;;;;;6269208;22;19922;-88
2022/08/29 00:42:28;;;;;;;;;;;;;;;;;;6242028;22;19919;-88
2022/08/29 00:44:54;;;;;;;;;;;;;;;;;;6267731;22;20343;-88
2022/08/29 00:47:21;;;;;;;;;;;;;;;;;;6264484;22;19929;-88
2022/08/29 00:49:48;;;;;;;;;;;;;;;;;;6267734;22;19990;-87
2022/08/29 00:52:14;;;;;;;;;;;;;;;;;;6244121;22;20254;-88
2022/08/29 00:54:40;;;;;;;;;;;;;;;;;;6266818;22;19993;-88
2022/08/29 00:57:06;;;;;;;;;;;;;;;;;;6270599;22;19919;-89
2022/08/29 00:59:32;;;;;;;;;;;;;;;;;;6270352;22;19921;-88
2022/08/29 01:01:58;;;;;;;;;;;;;;;;;;6242691;22;20254;-88
2022/08/29 01:04:24;;;;;;;;;;;;;;;;;;6241547;22;19915;-88
2022/08/29 01:06:50;;;;;;;;;;;;;;;;;;6244708;22;19972;-88
2022/08/29 01:09:16;;;;;;;;;;;;;;;;;;6244218;22;19923;-88
2022/08/29 01:14:26;;;;;;;;;;;;;;;;;;6267908;22;20520;-88
2022/08/29 01:16:52;;;;;;;;;;;;;;;;;;6244990;22;19943;-88
2022/08/29 01:19:18;;;;;;;;;;;;;;;;;;6242662;22;19926;-88
2022/08/29 01:21:44;;;;;;;;;;;;;;;;;;6267855;22;19919;-88
2022/08/29 01:24:10;;;;;;;;;;;;;;;;;;6269227;22;19926;-88
2022/08/29 01:26:36;;;;;;;;;;;;;;;;;;6242019;22;19915;-88
2022/08/29 01:29:02;;;;;;;;;;;;;;;;;;6269391;22;20295;-88
2022/08/29 01:31:28;;;;;;;;;;;;;;;;;;6242291;22;19923;-88
2022/08/29 01:33:55;;;;;;;;;;;;;;;;;;6268336;22;19990;-88
2022/08/29 01:36:21;;;;;;;;;;;;;;;;;;6231709;22;20220;-88
2022/08/29 01:38:48;;;;;;;;;;;;;;;;;;6270202;22;19918;-88
2022/08/29 01:41:14;;;;;;;;;;;;;;;;;;6243647;22;19923;-88
2022/08/29 01:43:40;;;;;;;;;;;;;;;;;;6265146;22;19923;-88
2022/08/29 01:46:06;;;;;;;;;;;;;;;;;;6242623;22;19914;-89
2022/08/29 01:48:31;;;;;;;;;;;;;;;;;;6242137;22;19944;-89
2022/08/29 01:50:57;;;;;;;;;;;;;;;;;;6241930;22;20414;-89
2022/08/29 01:53:23;;;;;;;;;;;;;;;;;;6266129;22;20330;-89
2022/08/29 01:55:49;;;;;;;;;;;;;;;;;;6244217;22;20255;-89
2022/08/29 01:58:15;;;;;;;;;;;;;;;;;;6241969;22;20381;-89
2022/08/29 02:00:41;;;;;;;;;;;;;;;;;;6267022;22;20296;-89
2022/08/29 02:03:07;;;;;;;;;;;;;;;;;;6269319;22;19921;-89
2022/08/29 02:05:33;;;;;;;;;;;;;;;;;;6264182;22;19971;-89
2022/08/29 02:07:59;;;;;;;;;;;;;;;;;;6266729;22;20058;-89
2022/08/29 02:10:25;;;;;;;;;;;;;;;;;;6264353;22;19918;-89
2022/08/29 02:12:52;;;;;;;;;;;;;;;;;;6269040;22;19972;-89
2022/08/29 02:15:18;;;;;;;;;;;;;;;;;;6242587;22;19925;-89
2022/08/29 02:17:44;;;;;;;;;;;;;;;;;;6269796;22;19919;-89
2022/08/29 02:20:10;;;;;;;;;;;;;;;;;;6244474;22;20338;-89
2022/08/29 02:22:36;;;;;;;;;;;;;;;;;;6241263;22;19915;-89
2022/08/29 02:25:39;;;;;;;;;;;;;;;;;;6270873;22;19915;-89
2022/08/29 02:27:49;;;;;;;;;;;;;;;;;;6268238;22;20406;-89
2022/08/29 02:30:15;;;;;;;;;;;;;;;;;;6243254;22;19999;-89
2022/08/29 02:32:41;;;;;;;;;;;;;;;;;;6243307;22;19949;-89
2022/08/29 02:35:07;;;;;;;;;;;;;;;;;;6243854;22;19919;-89
2022/08/29 02:37:33;;;;;;;;;;;;;;;;;;6241291;22;19919;-89
2022/08/29 02:39:59;;;;;;;;;;;;;;;;;;6243710;22;19918;-89
2022/08/29 02:42:25;;;;;;;;;;;;;;;;;;6240119;22;19965;-89
2022/08/29 02:44:51;;;;;;;;;;;;;;;;;;6244135;22;19964;-89
2022/08/29 02:47:17;;;;;;;;;;;;;;;;;;6243841;22;19915;-89
2022/08/29 02:49:43;;;;;;;;;;;;;;;;;;6241882;22;19922;-89
2022/08/29 02:52:09;;;;;;;;;;;;;;;;;;6240434;22;19919;-89
2022/08/29 02:54:35;;;;;;;;;;;;;;;;;;6237962;22;19919;-89
2022/08/29 02:57:01;;;;;;;;;;;;;;;;;;6267566;22;20337;-89
2022/08/29 02:59:27;;;;;;;;;;;;;;;;;;6240350;22;19919;-89
2022/08/29 03:01:52;;;;;;;;;;;;;;;;;;6268892;22;19923;-89
2022/08/29 03:04:18;;;;;;;;;;;;;;;;;;6244236;22;19946;-89
2022/08/29 03:06:45;;;;;;;;;;;;;;;;;;6270078;22;19946;-89
2022/08/29 03:09:11;;;;;;;;;;;;;;;;;;6244214;22;19919;-89
2022/08/29 03:11:37;;;;;;;;;;;;;;;;;;6267436;22;19919;-89
2022/08/29 03:14:03;;;;;;;;;;;;;;;;;;6243223;22;19967;-89
2022/08/29 03:16:29;;;;;;;;;;;;;;;;;;6265972;22;19922;-89
2022/08/29 03:18:55;;;;;;;;;;;;;;;;;;6269516;22;19915;-89
2022/08/29 03:21:21;;;;;;;;;;;;;;;;;;6241924;22;19989;-89
2022/08/29 03:23:47;;;;;;;;;;;;;;;;;;6268301;22;19925;-89
2022/08/29 03:26:13;;;;;;;;;;;;;;;;;;6243257;22;19921;-89
2022/08/29 03:28:39;;;;;;;;;;;;;;;;;;6241110;22;20202;-89
2022/08/29 03:31:05;;;;;;;;;;;;;;;;;;6269935;22;19969;-89
2022/08/29 03:33:30;;;;;;;;;;;;;;;;;;6266780;22;20247;-89
2022/08/29 03:35:56;;;;;;;;;;;;;;;;;;6242963;22;19994;-89
2022/08/29 03:38:22;;;;;;;;;;;;;;;;;;6241360;22;19918;-89
2022/08/29 03:40:48;;;;;;;;;;;;;;;;;;6242776;22;19919;-89
2022/08/29 03:43:14;;;;;;;;;;;;;;;;;;6242921;22;19990;-89
2022/08/29 03:45:41;;;;;;;;;;;;;;;;;;6265434;22;20382;-87
2022/08/29 03:48:06;;;;;;;;;;;;;;;;;;6269034;22;19941;-88
2022/08/29 03:50:32;;;;;;;;;;;;;;;;;;6239975;22;20425;-88
2022/08/29 03:52:58;;;;;;;;;;;;;;;;;;6268817;22;19923;-88
2022/08/29 03:55:24;;;;;;;;;;;;;;;;;;6264559;22;19921;-88
2022/08/29 03:57:50;;;;;;;;;;;;;;;;;;6241455;22;19957;-88
2022/08/29 04:00:16;;;;;;;;;;;;;;;;;;6268828;22;19914;-88
2022/08/29 04:02:42;;;;;;;;;;;;;;;;;;6240074;22;20263;-88
2022/08/29 04:05:08;;;;;;;;;;;;;;;;;;6243281;22;19919;-88
2022/08/29 04:07:34;;;;;;;;;;;;;;;;;;6241161;22;20041;-88
2022/08/29 04:10:00;;;;;;;;;;;;;;;;;;6269192;22;19958;-88
2022/08/29 04:12:26;;;;;;;;;;;;;;;;;;6265760;22;19919;-88
2022/08/29 04:14:52;;;;;;;;;;;;;;;;;;6269000;22;20013;-88
2022/08/29 04:17:18;;;;;;;;;;;;;;;;;;6243297;22;19919;-87
2022/08/29 04:19:44;;;;;;;;;;;;;;;;;;6271178;22;20645;-88
2022/08/29 04:22:12;;;;;;;;;;;;;;;;;;6269721;22;19927;-87
2022/08/29 04:24:38;;;;;;;;;;;;;;;;;;6242661;22;20417;-88
2022/08/29 04:27:04;;;;;;;;;;;;;;;;;;6270801;22;19971;-88
2022/08/29 04:29:30;;;;;;;;;;;;;;;;;;6268952;22;19926;-88
2022/08/29 04:31:56;;;;;;;;;;;;;;;;;;6245085;22;20346;-88
2022/08/29 04:34:22;;;;;;;;;;;;;;;;;;6268120;22;19964;-89
2022/08/29 04:36:48;;;;;;;;;;;;;;;;;;6243036;22;20354;-88
2022/08/29 04:39:14;;;;;;;;;;;;;;;;;;6244104;22;19918;-88
2022/08/29 04:41:40;;;;;;;;;;;;;;;;;;6240937;22;19931;-88
2022/08/29 04:44:06;;;;;;;;;;;;;;;;;;6270595;22;19914;-88
2022/08/29 04:46:32;;;;;;;;;;;;;;;;;;6268077;22;19990;-88
2022/08/29 04:48:58;;;;;;;;;;;;;;;;;;6245480;22;19954;-88
2022/08/29 04:51:24;;;;;;;;;;;;;;;;;;6242185;22;19925;-88
2022/08/29 04:53:50;;;;;;;;;;;;;;;;;;6270622;22;20228;-88
2022/08/29 04:56:17;;;;;;;;;;;;;;;;;;6270444;22;19922;-88
2022/08/29 04:58:43;;;;;;;;;;;;;;;;;;6242682;22;19915;-88
2022/08/29 05:01:09;;;;;;;;;;;;;;;;;;6265195;22;19994;-88
2022/08/29 05:03:35;;;;;;;;;;;;;;;;;;6237969;22;19950;-88
2022/08/29 05:06:01;;;;;;;;;;;;;;;;;;6265973;22;19977;-88
2022/08/29 05:08:27;;;;;;;;;;;;;;;;;;6240905;22;19915;-88
2022/08/29 05:10:53;;;;;;;;;;;;;;;;;;6265656;22;19922;-88
2022/08/29 05:13:19;;;;;;;;;;;;;;;;;;6239397;22;19923;-88
2022/08/29 05:15:45;;;;;;;;;;;;;;;;;;6268709;22;19971;-88
2022/08/29 05:18:11;;;;;;;;;;;;;;;;;;6269309;22;19919;-88
2022/08/29 05:20:37;;;;;;;;;;;;;;;;;;6242446;22;19919;-88
2022/08/29 05:23:03;;;;;;;;;;;;;;;;;;6269857;22;19941;-88
2022/08/29 05:25:29;;;;;;;;;;;;;;;;;;6241223;22;19922;-88
2022/08/29 05:27:55;;;;;;;;;;;;;;;;;;6268598;22;19919;-88
2022/08/29 05:30:21;;;;;;;;;;;;;;;;;;6267796;22;19929;-88
2022/08/29 05:32:47;;;;;;;;;;;;;;;;;;6270393;22;19961;-88
2022/08/29 05:35:13;;;;;;;;;;;;;;;;;;6244471;22;19915;-88
2022/08/29 05:37:39;;;;;;;;;;;;;;;;;;6242487;22;19926;-88
2022/08/29 05:40:05;;;;;;;;;;;;;;;;;;6264193;22;19926;-88
2022/08/29 05:42:31;;;;;;;;;;;;;;;;;;6235820;22;19973;-88
2022/08/29 05:44:57;;;;;;;;;;;;;;;;;;6265537;22;19919;-88
2022/08/29 05:47:24;;;;;;;;;;;;;;;;;;6262699;22;19959;-88
2022/08/29 05:49:50;;;;;;;;;;;;;;;;;;6264707;22;19934;-88
2022/08/29 05:52:16;;;;;;;;;;;;;;;;;;6263834;22;20259;-88
2022/08/29 05:54:42;;;;;;;;;;;;;;;;;;6261142;22;20359;-88
2022/08/29 05:57:08;;;;;;;;;;;;;;;;;;6239236;22;19929;-88
2022/08/29 05:59:34;;;;;;;;;;;;;;;;;;6235931;22;19993;-88
2022/08/29 06:02:00;;;;;;;;;;;;;;;;;;6262505;22;20374;-88
2022/08/29 06:04:26;;;;;;;;;;;;;;;;;;6262844;22;20229;-87
2022/08/29 06:06:52;;;;;;;;;;;;;;;;;;6262405;22;20254;-88
2022/08/29 06:09:18;;;;;;;;;;;;;;;;;;6234957;22;19930;-89
2022/08/29 06:11:44;;;;;;;;;;;;;;;;;;6237574;22;19915;-89
2022/08/29 06:14:10;;;;;;;;;;;;;;;;;;6238990;22;19919;-91
2022/08/29 06:16:38;;;;;;;;;;;;;;;;;;6232618;22;19919;-88
2022/08/29 06:19:04;;;;;;;;;;;;;;;;;;6233753;22;20263;-88
2022/08/29 06:21:30;;;;;;;;;;;;;;;;;;6260436;22;19926;-88
2022/08/29 06:23:56;;;;;;;;;;;;;;;;;;6263743;22;19915;-88
2022/08/29 06:26:24;;;;;;;;;;;;;;;;;;6236795;22;19951;-90
2022/08/29 06:28:50;;;;;;;;;;;;;;;;;;6237496;22;19964;-87
2022/08/29 06:31:16;;;;;;;;;;;;;;;;;;6262167;22;19927;-88
2022/08/29 06:33:42;;;;;;;;;;;;;;;;;;6260872;22;19925;-88
2022/08/29 06:36:10;;;;;;;;;;;;;;;;;;6263689;22;20410;-87
2022/08/29 06:38:45;;;;;;;;;;;;;;;;;;6236961;22;19923;-90
2022/08/29 06:41:11;;;;;;;;;;;;;;;;;;6237979;22;19982;-88
2022/08/29 06:43:37;;;;;;;;;;;;;;;;;;6235359;22;19962;-87
2022/08/29 06:46:03;;;;;;;;;;;;;;;;;;6262291;22;19923;-90
2022/08/29 06:48:29;;;;;;;;;;;;;;;;;;6236188;22;19927;-89
2022/08/29 06:50:56;;;;;;;;;;;;;;;;;;6239272;22;19950;-87
2022/08/29 06:53:22;;;;;;;;;;;;;;;;;;6260037;22;19974;-87
2022/08/29 06:55:48;;;;;;;;;;;;;;;;;;6260990;22;19919;-90
2022/08/29 06:58:14;;;;;;;;;;;;;;;;;;6237541;22;20382;-87
2022/08/29 07:00:40;;;;;;;;;;;;;;;;;;6260514;22;19950;-87
2022/08/29 07:03:06;;;;;;;;;;;;;;;;;;6261194;22;19920;-88
2022/08/29 07:05:32;;;;;;;;;;;;;;;;;;6259673;22;20302;-88
2022/08/29 07:07:58;;;;;;;;;;;;;;;;;;6264462;22;19969;-87
2022/08/29 07:10:23;;;;;;;;;;;;;;;;;;6259961;22;19919;-87
2022/08/29 07:12:49;;;;;;;;;;;;;;;;;;6263468;22;19931;-88
2022/08/29 07:15:15;;;;;;;;;;;;;;;;;;6235132;22;19915;-85
2022/08/29 07:17:41;;;;;;;;;;;;;;;;;;6237311;22;19965;-83
2022/08/29 07:20:07;;;;;;;;;;;;;;;;;;6265416;22;19919;-84
2022/08/29 07:22:33;;;;;;;;;;;;;;;;;;6236246;22;19923;-83
2022/08/29 07:24:59;;;;;;;;;;;;;;;;;;6267401;22;20297;-84
2022/08/29 07:27:25;;;;;;;;;;;;;;;;;;6262323;22;19953;-84
2022/08/29 07:29:51;;;;;;;;;;;;;;;;;;6266609;22;19915;-84
2022/08/29 07:32:17;;;;;;;;;;;;;;;;;;6264704;22;19920;-84
2022/08/29 07:34:46;;;;;;;;;;;;;;;;;;6243105;22;19915;-83
2022/08/29 07:37:12;;;;;;;;;;;;;;;;;;6265112;22;19919;-85
2022/08/29 07:39:38;;;;;;;;;;;;;;;;;;6263694;22;20334;-83
2022/08/29 07:42:04;;;;;;;;;;;;;;;;;;6239710;22;20047;-84
2022/08/29 07:44:31;;;;;;;;;;;;;;;;;;6264425;22;19955;-84
2022/08/29 07:46:57;;;;;;;;;;;;;;;;;;6269116;22;19915;-83
2022/08/29 07:49:23;;;;;;;;;;;;;;;;;;6235596;22;19925;-83
2022/08/29 07:51:49;;;;;;;;;;;;;;;;;;6266253;22;20113;-83
2022/08/29 07:54:17;;;;;;;;;;;;;;;;;;6268635;22;19925;-83
2022/08/29 07:56:44;;;;;;;;;;;;;;;;;;6263852;22;20225;-83
2022/08/29 07:59:10;;;;;;;;;;;;;;;;;;6264764;22;19923;-83
2022/08/29 08:01:35;;;;;;;;;;;;;;;;;;6234303;22;19923;-83
2022/08/29 08:04:01;;;;;;;;;;;;;;;;;;6263935;22;19922;-86
2022/08/29 08:06:27;;;;;;;;;;;;;;;;;;6259826;22;19950;-83
2022/08/29 08:08:53;;;;;;;;;;;;;;;;;;6238841;22;19920;-83
2022/08/29 08:11:19;;;;;;;;;;;;;;;;;;6263946;22;20347;-83
2022/08/29 08:13:45;;;;;;;;;;;;;;;;;;6243276;22;19919;-83
2022/08/29 08:16:11;;;;;;;;;;;;;;;;;;6268753;22;19919;-84
2022/08/29 08:18:37;;;;;;;;;;;;;;;;;;6266212;22;19915;-83
2022/08/29 08:21:03;;;;;;;;;;;;;;;;;;6242492;22;20259;-84
2022/08/29 08:23:29;;;;;;;;;;;;;;;;;;6266350;22;19919;-84
2022/08/29 08:25:56;;;;;;;;;;;;;;;;;;6264660;22;19968;-83
2022/08/29 08:28:22;;;;;;;;;;;;;;;;;;6238957;22;20352;-84
2022/08/29 08:30:48;;;;;;;;;;;;;;;;;;6268656;22;19920;-83
2022/08/29 08:33:14;;;;;;;;;;;;;;;;;;6268961;22;19919;-84
2022/08/29 08:35:40;;;;;;;;;;;;;;;;;;6265574;22;19923;-83
2022/08/29 08:38:07;;;;;;;;;;;;;;;;;;6244074;22;19927;-84
2022/08/29 08:40:33;;;;;;;;;;;;;;;;;;6270218;22;19923;-84
2022/08/29 08:42:59;;;;;;;;;;;;;;;;;;6267196;22;20250;-83
2022/08/29 08:45:25;;;;;;;;;;;;;;;;;;6263549;22;19934;-84
2022/08/29 08:47:51;;;;;;;;;;;;;;;;;;6268605;22;19930;-84
2022/08/29 08:50:20;;;;;;;;;;;;;;;;;;6240507;22;19919;-84
2022/08/29 08:52:46;;;;;;;;;;;;;;;;;;6269444;22;19948;-83
2022/08/29 08:55:13;;;;;;;;;;;;;;;;;;6269730;22;19980;-84
2022/08/29 08:57:39;;;;;;;;;;;;;;;;;;6266535;22;20336;-84
2022/08/29 09:00:05;;;;;;;;;;;;;;;;;;6270708;22;19998;-84
2022/08/29 09:02:33;;;;;;;;;;;;;;;;;;6268293;22;19926;-83
2022/08/29 09:04:59;;;;;;;;;;;;;;;;;;6267970;22;19923;-83
2022/08/29 09:07:25;;;;;;;;;;;;;;;;;;6237358;22;20187;-83
2022/08/29 09:09:52;;;;;;;;;;;;;;;;;;6293362;22;20278;-84
2022/08/29 09:12:18;;;;;;;;;;;;;;;;;;6266868;22;19993;-84
2022/08/29 09:14:45;;;;;;;;;;;;;;;;;;6268226;22;19918;-84
2022/08/29 09:17:11;;;;;;;;;;;;;;;;;;6242059;22;19957;-84
2022/08/29 09:19:37;;;;;;;;;;;;;;;;;;6238340;22;19918;-84
2022/08/29 09:22:03;;;;;;;;;;;;;;;;;;6267195;22;19986;-84
2022/08/29 09:24:29;;;;;;;;;;;;;;;;;;6266420;22;19922;-84
2022/08/29 09:26:55;;;;;;;;;;;;;;;;;;6242243;22;19980;-84
2022/08/29 09:29:21;;;;;;;;;;;;;;;;;;6240082;22;19965;-84
2022/08/29 09:31:47;;;;;;;;;;;;;;;;;;6242454;22;19923;-84
2022/08/29 09:34:14;;;;;;;;;;;;;;;;;;6268539;22;19925;-84
2022/08/29 09:36:40;;;;;;;;;;;;;;;;;;6265108;22;20335;-84
2022/08/29 09:39:06;;;;;;;;;;;;;;;;;;6261467;22;19923;-84
2022/08/29 09:41:32;;;;;;;;;;;;;;;;;;6234848;22;20302;-84
2022/08/29 09:43:58;;;;;;;;;;;;;;;;;;6261518;22;19933;-84
2022/08/29 09:46:24;;;;;;;;;;;;;;;;;;6259064;22;19915;-84
2022/08/29 09:48:50;;;;;;;;;;;;;;;;;;6263228;22;19988;-84
2022/08/29 09:51:16;;;;;;;;;;;;;;;;;;6263333;22;19926;-84
2022/08/29 09:53:42;;;;;;;;;;;;;;;;;;6260861;22;19919;-84
2022/08/29 09:56:08;;;;;;;;;;;;;;;;;;6236242;22;19919;-84
2022/08/29 09:58:34;;;;;;;;;;;;;;;;;;6232816;22;19915;-84
2022/08/29 10:01:00;;;;;;;;;;;;;;;;;;6258982;22;20002;-84
2022/08/29 10:03:26;;;;;;;;;;;;;;;;;;6230368;22;19923;-84
2022/08/29 10:05:52;;;;;;;;;;;;;;;;;;6234659;22;19987;-84
2022/08/29 10:08:18;;;;;;;;;;;;;;;;;;6233705;22;19923;-84
2022/08/29 10:10:44;;;;;;;;;;;;;;;;;;6234228;22;19955;-84
2022/08/29 10:13:10;;;;;;;;;;;;;;;;;;6233268;22;19971;-84
2022/08/29 10:15:36;;;;;;;;;;;;;;;;;;6233159;22;19919;-84
2022/08/29 10:18:22;;;;;;;;;;;;;;;;;;6236528;22;19922;-84
2022/08/29 10:20:48;;;;;;;;;;;;;;;;;;6234898;22;19925;-84
2022/08/29 10:23:14;;;;;;;;;;;;;;;;;;6258732;22;19954;-85
2022/08/29 10:25:40;;;;;;;;;;;;;;;;;;6227334;22;19950;-84
2022/08/29 10:28:06;;;;;;;;;;;;;;;;;;6254862;22;19923;-83
2022/08/29 10:30:32;;;;;;;;;;;;;;;;;;6253763;22;19919;-84
2022/08/29 10:32:58;;;;;;;;;;;;;;;;;;6233105;22;19984;-84
2022/08/29 10:35:40;;;;;;;;;;;;;;;;;;;;;
2022/08/29 10:38:11;;;;;;;;;;;;;;;;;;6264510;22;19945;-89
2022/08/29 10:40:38;;;;;;;;;;;;;;;;;;6263250;22;20251;-89
2022/08/29 10:43:04;;;;;;;;;;;;;;;;;;6243559;22;20036;-89
2022/08/29 10:45:40;;;;;;;;;;;;;;;;;;;;;
2022/08/29 10:48:17;;;;;;;;;;;;;;;;;;6268132;22;20359;-89
2022/08/29 10:50:46;;;;;;;;;;;;;;;;;;6241513;22;20232;-89
2022/08/29 10:53:15;;;;;;;;;;;;;;;;;;6243333;22;20302;-89
2022/08/29 10:55:41;;;;;;;;;;;;;;;;;;6268957;22;20422;-89
2022/08/29 10:58:10;;;;;;;;;;;;;;;;;;6245796;22;19961;-89
2022/08/29 11:00:36;;;;;;;;;;;;;;;;;;6268002;22;19976;-89
2022/08/29 11:03:02;;;;;;;;;;;;;;;;;;6243766;22;19918;-89
2022/08/29 11:05:33;;;;;;;;;;;;;;;;;;6242369;22;19926;-89
2022/08/29 11:08:18;;;;;;;;;;;;;;;;;;;;;
2022/08/29 11:11:21;;;;;;;;;;;;;;;;;;6270472;22;19985;-89
2022/08/29 11:13:59;;;;;;;;;;;;;;;;;;6308044;22;20259;-89
2022/08/29 11:16:52;;;;;;;;;;;;;;;;;;6241305;22;20335;-89
2022/08/29 11:19:34;;;;;;;;;;;;;;;;;;6239682;22;19966;-89
2022/08/29 11:22:00;;;;;;;;;;;;;;;;;;6267586;22;19919;-89
2022/08/29 11:24:26;;;;;;;;;;;;;;;;;;6295134;22;20023;-89
2022/08/29 11:26:53;;;;;;;;;;;;;;;;;;6241465;22;19914;-89
2022/08/29 11:29:23;;;;;;;;;;;;;;;;;;6263587;22;19967;-89
2022/08/29 11:31:49;;;;;;;;;;;;;;;;;;6245197;22;20403;-88
2022/08/29 11:34:15;;;;;;;;;;;;;;;;;;6267384;22;20320;-89
2022/08/29 11:36:42;;;;;;;;;;;;;;;;;;6241114;22;19919;-89
2022/08/29 11:39:11;;;;;;;;;;;;;;;;;;6235913;22;20319;-89
2022/08/29 11:41:49;;;;;;;;;;;;;;;;;;6261960;22;19923;-89
2022/08/29 11:44:30;;;;;;;;;;;;;;;;;;6236079;22;20010;-89
2022/08/29 11:46:57;;;;;;;;;;;;;;;;;;6263152;22;19923;-89
2022/08/29 11:49:23;;;;;;;;;;;;;;;;;;6229660;22;20324;-89
2022/08/29 11:51:52;;;;;;;;;;;;;;;;;;6237582;22;19925;-89
2022/08/29 11:54:27;;;;;;;;;;;;;;;;;;6257620;22;19988;-89
2022/08/29 11:56:53;;;;;;;;;;;;;;;;;;6258774;22;19938;-89
2022/08/29 11:59:19;;;;;;;;;;;;;;;;;;6232313;22;19919;-89
2022/08/29 12:01:50;;;;;;;;;;;;;;;;;;6238242;22;19927;-89
2022/08/29 12:04:17;;;;;;;;;;;;;;;;;;6233713;22;20228;-89
2022/08/29 12:06:46;;;;;;;;;;;;;;;;;;6231941;22;19919;-89
2022/08/29 12:09:16;;;;;;;;;;;;;;;;;;6236833;22;19923;-89
2022/08/29 12:11:42;;;;;;;;;;;;;;;;;;6231105;22;19942;-89
2022/08/29 12:14:16;;;;;;;;;;;;;;;;;;6235267;22;19926;-89
2022/08/29 12:16:42;;;;;;;;;;;;;;;;;;6235453;22;20437;-89
2022/08/29 12:19:15;;;;;;;;;;;;;;;;;;6234517;22;19919;-89
2022/08/29 12:25:02;;;;;;;;;;;;;;;;;;6246772;22;19923;-88
2022/08/29 12:27:47;;;;;;;;;;;;;;;;;;6262330;22;20005;-89
2022/08/29 12:30:15;;;;;;;;;;;;;;;;;;6233755;22;19926;-89
2022/08/29 12:32:44;;;;;;;;;;;;;;;;;;6262391;22;20275;-89
2022/08/29 12:35:17;;;;;;;;;;;;;;;;;;6234952;22;19919;-89
2022/08/29 12:38:04;;;;;;;;;;;;;;;;;;6272004;22;20252;-89
2022/08/29 12:40:36;;;;;;;;;;;;;;;;;;6233077;22;19928;-89
2022/08/29 12:43:07;;;;;;;;;;;;;;;;;;6262158;22;19919;-89
2022/08/29 12:45:36;;;;;;;;;;;;;;;;;;6238083;22;20236;-89
2022/08/29 12:48:05;;;;;;;;;;;;;;;;;;6241543;22;20053;-89
2022/08/29 12:50:35;;;;;;;;;;;;;;;;;;6239821;22;19915;-89
2022/08/29 12:53:01;;;;;;;;;;;;;;;;;;6267643;22;19919;-89
2022/08/29 12:55:27;;;;;;;;;;;;;;;;;;6264864;22;19915;-89
2022/08/29 12:58:00;;;;;;;;;;;;;;;;;;6243181;22;19923;-89
2022/08/29 13:00:28;;;;;;;;;;;;;;;;;;6240369;22;19926;-89
2022/08/29 13:02:54;;;;;;;;;;;;;;;;;;6242806;22;20320;-89
2022/08/29 13:05:23;;;;;;;;;;;;;;;;;;6239240;22;19964;-89
2022/08/29 13:07:49;;;;;;;;;;;;;;;;;;6239809;22;20023;-89
2022/08/29 13:10:15;;;;;;;;;;;;;;;;;;6238310;22;20232;-88
2022/08/29 13:12:47;;;;;;;;;;;;;;;;;;6236258;22;19984;-89
2022/08/29 13:15:16;;;;;;;;;;;;;;;;;;6263730;22;20274;-89
2022/08/29 13:17:42;;;;;;;;;;;;;;;;;;6237823;22;19919;-89
2022/08/29 13:20:08;;;;;;;;;;;;;;;;;;6236994;22;19915;-89
2022/08/29 13:22:40;;;;;;;;;;;;;;;;;;6234899;22;19919;-89
2022/08/29 13:25:12;;;;;;;;;;;;;;;;;;6239215;22;19922;-89
2022/08/29 13:27:43;;;;;;;;;;;;;;;;;;6260166;22;20354;-89
2022/08/29 13:30:16;;;;;;;;;;;;;;;;;;6236482;22;20304;-89
2022/08/29 13:32:47;;;;;;;;;;;;;;;;;;6235504;22;20513;-89
2022/08/29 13:35:23;;;;;;;;;;;;;;;;;;6237125;22;20263;-95
2022/08/29 13:38:22;;;;;;;;;;;;;;;;;;6253373;22;19954;-95
2022/08/29 13:40:48;;;;;;;;;;;;;;;;;;6240758;22;19976;-88
2022/08/29 13:43:18;;;;;;;;;;;;;;;;;;6236596;22;19919;-89
2022/08/29 13:45:45;;;;;;;;;;;;;;;;;;6234468;22;19955;-89
2022/08/29 13:48:11;;;;;;;;;;;;;;;;;;6263066;22;20402;-89
2022/08/29 13:50:37;;;;;;;;;;;;;;;;;;6235861;22;19968;-89
2022/08/29 13:53:05;;;;;;;;;;;;;;;;;;6238946;22;19918;-89
2022/08/29 13:55:31;;;;;;;;;;;;;;;;;;6260080;22;19919;-89
2022/08/29 13:57:57;;;;;;;;;;;;;;;;;;6237793;22;19921;-89
2022/08/29 14:00:26;;;;;;;;;;;;;;;;;;6260686;22;20331;-89
2022/08/29 14:02:52;;;;;;;;;;;;;;;;;;6262974;22;20394;-89
2022/08/29 14:05:20;;;;;;;;;;;;;;;;;;6265049;22;19915;-89
2022/08/29 14:07:46;;;;;;;;;;;;;;;;;;6241082;22;19971;-89
2022/08/29 14:10:12;;;;;;;;;;;;;;;;;;6238173;22;20264;-89
2022/08/29 14:12:38;;;;;;;;;;;;;;;;;;6236143;22;20306;-89
2022/08/29 14:15:05;;;;;;;;;;;;;;;;;;6237054;22;19921;-89
2022/08/29 14:17:31;;;;;;;;;;;;;;;;;;6259652;22;20401;-89
2022/08/29 14:19:57;;;;;;;;;;;;;;;;;;6238522;22;20092;-89
2022/08/29 14:22:23;;;;;;;;;;;;;;;;;;6237285;22;19919;-89
2022/08/29 14:24:51;;;;;;;;;;;;;;;;;;6264522;22;19923;-86
2022/08/29 14:27:20;;;;;;;;;;;;;;;;;;6293504;22;19986;-84
2022/08/29 14:29:46;;;;;;;;;;;;;;;;;;6238865;22;20289;-84
2022/08/29 14:32:12;;;;;;;;;;;;;;;;;;6264336;22;19919;-84
2022/08/29 14:34:39;;;;;;;;;;;;;;;;;;6237489;22;20340;-85
2022/08/29 14:37:05;;;;;;;;;;;;;;;;;;6263253;22;19948;-84
2022/08/29 14:39:30;;;;;;;;;;;;;;;;;;6261821;22;20350;-85
2022/08/29 14:41:56;;;;;;;;;;;;;;;;;;6239093;22;19918;-84
2022/08/29 14:44:22;;;;;;;;;;;;;;;;;;6263075;22;19918;-84
2022/08/29 14:46:48;;;;;;;;;;;;;;;;;;6290770;22;19918;-84
2022/08/29 14:49:14;;;;;;;;;;;;;;;;;;6264007;22;19927;-84
2022/08/29 14:51:40;;;;;;;;;;;;;;;;;;6261337;22;19926;-84
2022/08/29 14:54:07;;;;;;;;;;;;;;;;;;6239401;22;20369;-85
2022/08/29 14:56:33;;;;;;;;;;;;;;;;;;6288624;22;20331;-84
2022/08/29 14:58:58;;;;;;;;;;;;;;;;;;6265908;22;19915;-84
2022/08/29 15:01:24;;;;;;;;;;;;;;;;;;6233529;22;19919;-83
2022/08/29 15:03:50;;;;;;;;;;;;;;;;;;6291176;22;19915;-84
2022/08/29 15:06:16;;;;;;;;;;;;;;;;;;6262418;22;19915;-84
2022/08/29 15:08:42;;;;;;;;;;;;;;;;;;6260187;22;20315;-84
2022/08/29 15:11:10;;;;;;;;;;;;;;;;;;6290163;22;19990;-84
2022/08/29 15:13:36;;;;;;;;;;;;;;;;;;6259453;22;20384;-84
2022/08/29 15:16:02;;;;;;;;;;;;;;;;;;6289310;22;19990;-84
2022/08/29 15:18:28;;;;;;;;;;;;;;;;;;6259752;22;19926;-84
2022/08/29 15:20:54;;;;;;;;;;;;;;;;;;6263685;22;19919;-84
2022/08/29 15:23:20;;;;;;;;;;;;;;;;;;6287116;22;19922;-85
2022/08/29 15:25:46;;;;;;;;;;;;;;;;;;6237908;22;19921;-85
2022/08/29 15:28:12;;;;;;;;;;;;;;;;;;6265968;22;19923;-85
2022/08/29 15:30:38;;;;;;;;;;;;;;;;;;6262348;22;19919;-85
2022/08/29 15:33:04;;;;;;;;;;;;;;;;;;6263921;22;19966;-83
2022/08/29 15:35:29;;;;;;;;;;;;;;;;;;6234630;22;19923;-87
2022/08/29 15:37:56;;;;;;;;;;;;;;;;;;6260095;22;19919;-85
2022/08/29 15:40:22;;;;;;;;;;;;;;;;;;6231633;22;19952;-84
2022/08/29 15:42:48;;;;;;;;;;;;;;;;;;6258392;22;20400;-84
2022/08/29 15:45:14;;;;;;;;;;;;;;;;;;6259942;22;19974;-83
2022/08/29 15:47:40;;;;;;;;;;;;;;;;;;6254054;22;20413;-84
2022/08/29 15:50:06;;;;;;;;;;;;;;;;;;6261613;22;19950;-84
2022/08/29 15:52:32;;;;;;;;;;;;;;;;;;6260558;22;20022;-84
2022/08/29 15:54:58;;;;;;;;;;;;;;;;;;6263761;22;20355;-84
2022/08/29 15:57:25;;;;;;;;;;;;;;;;;;6262774;22;20258;-84
2022/08/29 15:59:50;;;;;;;;;;;;;;;;;;6233997;22;19918;-84
2022/08/29 16:02:16;;;;;;;;;;;;;;;;;;6259156;22;19926;-84
2022/08/29 16:04:46;;;;;;;;;;;;;;;;;;6257079;22;19919;-84
2022/08/29 16:07:12;;;;;;;;;;;;;;;;;;6288068;22;20076;-84
2022/08/29 16:09:38;;;;;;;;;;;;;;;;;;6284322;22;19923;-85
2022/08/29 16:12:04;;;;;;;;;;;;;;;;;;6262171;22;19984;-84
2022/08/29 16:14:30;;;;;;;;;;;;;;;;;;6236495;22;20239;-84
2022/08/29 16:16:56;;;;;;;;;;;;;;;;;;6244630;22;19973;-84
2022/08/29 16:19:22;;;;;;;;;;;;;;;;;;6265622;22;19923;-84
2022/08/29 16:21:47;;;;;;;;;;;;;;;;;;6265964;22;19921;-84
2022/08/29 16:24:13;;;;;;;;;;;;;;;;;;6263170;22;19926;-83
2022/08/29 16:26:39;;;;;;;;;;;;;;;;;;6264909;22;20357;-84
2022/08/29 16:29:05;;;;;;;;;;;;;;;;;;6239666;22;20323;-83
2022/08/29 16:31:31;;;;;;;;;;;;;;;;;;6235405;22;19994;-84
2022/08/29 16:33:57;;;;;;;;;;;;;;;;;;6263695;22;19950;-84
2022/08/29 16:36:25;;;;;;;;;;;;;;;;;;6236015;22;19919;-84
2022/08/29 16:38:51;;;;;;;;;;;;;;;;;;6264570;22;20360;-84
2022/08/29 16:41:18;;;;;;;;;;;;;;;;;;6240283;22;19918;-84
2022/08/29 16:43:48;;;;;;;;;;;;;;;;;;6265669;22;19918;-83
2022/08/29 16:46:15;;;;;;;;;;;;;;;;;;6238120;22;20378;-83
2022/08/29 16:48:42;;;;;;;;;;;;;;;;;;6236745;22;19923;-84
2022/08/29 16:51:08;;;;;;;;;;;;;;;;;;6263500;22;19919;-84
2022/08/29 16:53:34;;;;;;;;;;;;;;;;;;6259694;22;20293;-83